Time;durP1;ratioP1;P1;durP2;ratioP2;P2;SDS_P1;SDS_P2;PMS_P1;PMS_P2;Temp;Humidity;BMP_temperature;BMP_pressure;BME280_temperature;BME280_humidity;BME280_pressure;Samples;Min_cycle;Max_cycle;Signal;HPM_P1;HPM_P2
2023/07/16 00:01:54;;;;;;;0.38;0.38;;;17.90;99.90;;;;;;5045228;28;20095;-69
2023/07/16 00:04:19;;;;;;;3.90;1.58;;;17.80;99.90;;;;;;5019856;28;20501;-70
2023/07/16 00:06:46;;;;;;;0.00;0.00;;;17.90;99.90;;;;;;5024210;28;20041;-69
2023/07/16 00:09:12;;;;;;;1.23;1.13;;;17.90;99.90;;;;;;5048687;28;20677;-69
2023/07/16 00:11:37;;;;;;;1.08;0.98;;;17.90;99.90;;;;;;5039946;28;20052;-70
2023/07/16 00:14:03;;;;;;;1.63;0.75;;;17.90;99.90;;;;;;5028531;28;20117;-70
2023/07/16 00:16:29;;;;;;;0.15;0.15;;;17.90;99.90;;;;;;5037259;28;20087;-70
2023/07/16 00:18:54;;;;;;;3.03;1.10;;;17.90;99.90;;;;;;5024002;28;20044;-70
2023/07/16 00:21:20;;;;;;;0.28;0.20;;;17.90;99.90;;;;;;5020872;28;20081;-70
2023/07/16 00:23:46;;;;;;;0.55;0.55;;;17.90;99.90;;;;;;5041287;28;20037;-70
2023/07/16 00:26:13;;;;;;;0.45;0.20;;;17.80;99.90;;;;;;5037912;28;20044;-70
2023/07/16 00:28:39;;;;;;;0.98;0.35;;;17.80;99.90;;;;;;5028132;28;20037;-71
2023/07/16 00:31:04;;;;;;;0.20;0.20;;;17.90;99.90;;;;;;5026623;28;20506;-70
2023/07/16 00:33:30;;;;;;;0.20;0.20;;;17.80;99.90;;;;;;5022908;28;20050;-69
2023/07/16 00:35:56;;;;;;;0.00;0.00;;;17.80;99.90;;;;;;5031294;28;20037;-69
2023/07/16 00:38:21;;;;;;;3.95;0.88;;;17.90;99.90;;;;;;5029651;28;20050;-69
2023/07/16 00:40:47;;;;;;;0.63;0.63;;;17.90;99.90;;;;;;5025961;28;20037;-68
2023/07/16 00:43:13;;;;;;;0.13;0.13;;;18.00;99.90;;;;;;5031121;28;20037;-68
2023/07/16 00:45:40;;;;;;;0.22;0.22;;;17.90;99.90;;;;;;5028177;28;20041;-70
2023/07/16 00:48:07;;;;;;;9.40;3.10;;;17.90;99.90;;;;;;5037383;28;20073;-70
2023/07/16 00:50:34;;;;;;;0.20;0.20;;;17.90;99.90;;;;;;5025192;28;20116;-69
2023/07/16 00:53:03;;;;;;;1.23;0.63;;;17.90;99.90;;;;;;5047153;28;20049;-70
2023/07/16 00:55:30;;;;;;;0.25;0.25;;;17.90;99.90;;;;;;5026085;28;20494;-70
2023/07/16 00:58:05;;;;;;;0.75;0.68;;;17.90;99.90;;;;;;5025291;28;20490;-71
2023/07/16 01:00:35;;;;;;;0.20;0.20;;;17.90;99.90;;;;;;5040228;28;20082;-70
2023/07/16 01:03:02;;;;;;;0.65;0.65;;;17.90;99.90;;;;;;5018473;28;20115;-71
2023/07/16 01:05:38;;;;;;;0.70;0.70;;;17.90;99.90;;;;;;5023638;28;20088;-70
2023/07/16 01:08:08;;;;;;;0.08;0.08;;;17.90;99.90;;;;;;5024813;28;20401;-71
2023/07/16 01:10:34;;;;;;;3.58;0.43;;;18.00;99.90;;;;;;5025792;28;20440;-70
2023/07/16 01:13:00;;;;;;;0.10;0.10;;;18.00;99.90;;;;;;5028626;28;20041;-70
2023/07/16 01:15:26;;;;;;;1.17;0.90;;;17.90;99.90;;;;;;5040272;28;20152;-71
2023/07/16 01:17:51;;;;;;;0.38;0.38;;;17.90;99.90;;;;;;5042074;28;20524;-71
2023/07/16 01:20:17;;;;;;;0.22;0.22;;;18.00;99.90;;;;;;5041508;28;20037;-69
2023/07/16 01:23:20;;;;;;;2.17;0.80;;;17.90;99.90;;;;;;5027447;28;20048;-72
2023/07/16 01:26:02;;;;;;;0.35;0.35;;;17.90;99.90;;;;;;5027659;28;20389;-70
2023/07/16 01:29:01;;;;;;;2.20;1.13;;;17.90;99.90;;;;;;5019684;28;20177;-70
2023/07/16 01:31:28;;;;;;;0.00;0.00;;;17.80;99.90;;;;;;5025078;28;20072;-71
2023/07/16 01:33:57;;;;;;;1.17;0.30;;;17.80;99.90;;;;;;5041325;28;20465;-71
2023/07/16 01:36:24;;;;;;;5.00;2.72;;;17.80;99.90;;;;;;5027288;28;20584;-71
2023/07/16 01:38:49;;;;;;;6.15;0.52;;;17.80;99.90;;;;;;5018607;28;20147;-71
2023/07/16 01:41:15;;;;;;;0.20;0.20;;;17.90;99.90;;;;;;5018615;28;20050;-71
2023/07/16 01:43:40;;;;;;;0.00;0.00;;;17.90;99.90;;;;;;5035358;28;20052;-71
2023/07/16 01:46:06;;;;;;;0.28;0.28;;;18.00;99.90;;;;;;5019853;28;20098;-70
2023/07/16 01:48:37;;;;;;;0.75;0.75;;;18.00;99.90;;;;;;5036581;28;20044;-70
2023/07/16 01:51:03;;;;;;;1.05;1.02;;;18.00;99.90;;;;;;5013621;28;20081;-70
2023/07/16 01:53:29;;;;;;;0.17;0.17;;;17.90;99.90;;;;;;5039734;28;20102;-70
2023/07/16 01:55:54;;;;;;;0.00;0.00;;;18.00;99.90;;;;;;5013134;28;20050;-71
2023/07/16 01:58:20;;;;;;;2.00;0.55;;;18.00;99.90;;;;;;5013456;28;20053;-71
2023/07/16 02:00:48;;;;;;;0.28;0.28;;;18.00;99.90;;;;;;5015734;28;20111;-71
2023/07/16 02:03:13;;;;;;;0.17;0.17;;;18.00;99.90;;;;;;5017604;28;20041;-72
2023/07/16 02:05:39;;;;;;;0.00;0.00;;;18.00;99.90;;;;;;5011437;28;20477;-68
2023/07/16 02:08:05;;;;;;;5.68;1.98;;;18.00;99.90;;;;;;5026040;28;20500;-71
2023/07/16 02:10:31;;;;;;;0.20;0.20;;;18.10;99.90;;;;;;5012327;28;20443;-71
2023/07/16 02:12:56;;;;;;;3.92;0.57;;;18.10;99.90;;;;;;5022114;28;20536;-70
2023/07/16 02:15:22;;;;;;;0.17;0.17;;;18.10;99.90;;;;;;5022236;28;20038;-72
2023/07/16 02:17:48;;;;;;;0.00;0.00;;;18.10;99.90;;;;;;5031395;28;20048;-71
2023/07/16 02:20:13;;;;;;;0.00;0.00;;;18.10;99.90;;;;;;5021721;28;20101;-70
2023/07/16 02:22:39;;;;;;;9.10;1.13;;;18.10;99.90;;;;;;5026373;28;20400;-70
2023/07/16 02:25:05;;;;;;;0.40;0.40;;;18.10;99.90;;;;;;5030665;28;20140;-70
2023/07/16 02:27:31;;;;;;;0.15;0.15;;;18.10;99.90;;;;;;5028249;28;20088;-69
2023/07/16 02:29:57;;;;;;;1.25;0.43;;;18.10;99.90;;;;;;5044247;28;20076;-71
2023/07/16 02:32:23;;;;;;;0.73;0.60;;;18.10;99.90;;;;;;5007131;28;20557;-70
2023/07/16 02:34:49;;;;;;;0.00;0.00;;;18.00;99.90;;;;;;5033545;28;20412;-70
2023/07/16 02:37:14;;;;;;;0.82;0.80;;;18.00;99.90;;;;;;5045579;28;20106;-71
2023/07/16 02:39:42;;;;;;;0.08;0.08;;;17.90;99.90;;;;;;5040544;28;20583;-68
2023/07/16 02:42:08;;;;;;;0.35;0.35;;;17.90;99.90;;;;;;5013040;28;20485;-69
2023/07/16 02:44:35;;;;;;;0.95;0.40;;;17.80;99.90;;;;;;5018830;28;20054;-69
2023/07/16 02:47:01;;;;;;;1.00;0.95;;;17.80;99.90;;;;;;5021252;28;20410;-69
2023/07/16 02:49:27;;;;;;;1.00;1.00;;;17.70;99.90;;;;;;5037181;28;20493;-69
2023/07/16 02:51:52;;;;;;;0.10;0.10;;;17.60;99.90;;;;;;5045201;28;20048;-70
2023/07/16 02:54:18;;;;;;;0.10;0.10;;;17.70;99.90;;;;;;5030415;28;20075;-70
2023/07/16 02:56:43;;;;;;;0.00;0.00;;;17.60;99.90;;;;;;5037406;28;20073;-71
2023/07/16 02:59:09;;;;;;;5.38;0.82;;;17.60;99.90;;;;;;5026592;28;20167;-69
2023/07/16 03:01:35;;;;;;;1.13;1.10;;;17.60;99.90;;;;;;5040679;28;20042;-70
2023/07/16 03:04:00;;;;;;;0.10;0.10;;;17.60;99.90;;;;;;5039612;28;20044;-70
2023/07/16 03:06:26;;;;;;;0.57;0.32;;;17.70;99.90;;;;;;5047552;28;20038;-69
2023/07/16 03:08:51;;;;;;;2.55;0.95;;;17.70;99.90;;;;;;5021694;28;20037;-70
2023/07/16 03:11:17;;;;;;;1.75;0.50;;;17.70;99.90;;;;;;5040522;28;20474;-70
2023/07/16 03:13:42;;;;;;;2.38;0.40;;;17.70;99.90;;;;;;5035786;28;22347;-69
2023/07/16 03:16:08;;;;;;;0.65;0.60;;;17.60;99.90;;;;;;5026875;28;20046;-69
2023/07/16 03:18:34;;;;;;;0.10;0.10;;;17.60;99.90;;;;;;5040539;28;20404;-70
2023/07/16 03:20:59;;;;;;;0.00;0.00;;;17.70;99.90;;;;;;5021850;28;20046;-70
2023/07/16 03:23:26;;;;;;;0.00;0.00;;;17.60;99.90;;;;;;5026364;28;20045;-70
2023/07/16 03:25:52;;;;;;;3.72;1.70;;;17.60;99.90;;;;;;5042480;28;20034;-70
2023/07/16 03:28:17;;;;;;;0.75;0.50;;;17.70;99.90;;;;;;5047416;28;20049;-70
2023/07/16 03:30:50;;;;;;;0.30;0.30;;;17.60;99.90;;;;;;5024723;28;20068;-71
2023/07/16 03:33:16;;;;;;;0.32;0.32;;;17.60;99.90;;;;;;5021716;28;20140;-70
2023/07/16 03:35:47;;;;;;;0.22;0.22;;;17.60;99.90;;;;;;5025916;28;20033;-71
2023/07/16 03:38:13;;;;;;;0.47;0.45;;;17.60;99.90;;;;;;5034536;28;20041;-70
2023/07/16 03:40:39;;;;;;;0.00;0.00;;;17.60;99.90;;;;;;5027301;28;20137;-70
2023/07/16 03:43:05;;;;;;;0.30;0.30;;;17.60;99.90;;;;;;5041578;28;20123;-71
2023/07/16 03:45:31;;;;;;;1.25;0.88;;;17.70;99.90;;;;;;5040191;28;20049;-71
2023/07/16 03:47:57;;;;;;;0.00;0.00;;;17.60;99.90;;;;;;5033599;28;20056;-70
2023/07/16 03:50:22;;;;;;;0.00;0.00;;;17.70;99.90;;;;;;5029095;28;20470;-71
2023/07/16 03:52:48;;;;;;;0.35;0.35;;;17.70;99.90;;;;;;5016000;28;20050;-72
2023/07/16 03:55:14;;;;;;;0.28;0.28;;;17.70;99.90;;;;;;5019870;28;20045;-70
2023/07/16 03:57:41;;;;;;;0.30;0.22;;;17.70;99.90;;;;;;5033142;28;20042;-69
2023/07/16 04:00:09;;;;;;;0.35;0.35;;;17.70;99.90;;;;;;5039555;28;20099;-69
2023/07/16 04:02:34;;;;;;;0.55;0.45;;;17.70;99.90;;;;;;5043093;28;20124;-70
2023/07/16 04:05:00;;;;;;;0.28;0.28;;;17.60;99.90;;;;;;5028348;28;20113;-71
2023/07/16 04:07:26;;;;;;;1.38;1.13;;;17.60;99.90;;;;;;5021726;28;20046;-69
2023/07/16 04:09:51;;;;;;;0.52;0.52;;;17.60;99.90;;;;;;5039177;28;20049;-70
2023/07/16 04:12:17;;;;;;;0.80;0.47;;;17.60;99.90;;;;;;5027201;28;20076;-70
2023/07/16 04:14:43;;;;;;;0.08;0.08;;;17.60;99.90;;;;;;5030633;28;20032;-69
2023/07/16 04:17:08;;;;;;;0.28;0.28;;;17.70;99.90;;;;;;5032183;28;20550;-69
2023/07/16 04:19:34;;;;;;;0.10;0.10;;;17.70;99.90;;;;;;5033873;28;20090;-70
2023/07/16 04:22:00;;;;;;;0.32;0.32;;;17.70;99.90;;;;;;5029693;28;20041;-69
2023/07/16 04:24:26;;;;;;;0.30;0.30;;;17.70;99.90;;;;;;5041175;28;20038;-67
2023/07/16 04:26:55;;;;;;;0.30;0.30;;;17.80;99.90;;;;;;5041916;28;20058;-65
2023/07/16 04:29:21;;;;;;;0.63;0.63;;;17.80;99.90;;;;;;5032381;28;20048;-68
2023/07/16 04:31:47;;;;;;;0.45;0.45;;;17.90;99.90;;;;;;5044206;28;20037;-70
2023/07/16 04:34:13;;;;;;;0.20;0.20;;;17.90;99.90;;;;;;5046995;28;20144;-70
2023/07/16 04:36:39;;;;;;;0.20;0.20;;;17.90;99.90;;;;;;5041884;28;20048;-69
2023/07/16 04:39:04;;;;;;;0.40;0.40;;;17.80;99.90;;;;;;5019655;28;20046;-70
2023/07/16 04:41:30;;;;;;;0.73;0.73;;;17.80;99.90;;;;;;5028425;28;20603;-70
2023/07/16 04:43:56;;;;;;;2.45;1.00;;;17.70;99.90;;;;;;5028174;28;20632;-71
2023/07/16 04:46:22;;;;;;;0.00;0.00;;;17.70;99.90;;;;;;5038746;28;20508;-70
2023/07/16 04:48:48;;;;;;;0.22;0.22;;;17.70;99.90;;;;;;5038273;28;20119;-70
2023/07/16 04:51:14;;;;;;;0.45;0.45;;;17.60;99.90;;;;;;5040806;28;20230;-69
2023/07/16 04:53:39;;;;;;;0.82;0.80;;;17.70;99.90;;;;;;5030663;28;20041;-68
2023/07/16 04:56:12;;;;;;;0.00;0.00;;;17.70;99.90;;;;;;5040743;28;20258;-69
2023/07/16 04:58:38;;;;;;;0.20;0.20;;;17.80;99.90;;;;;;5040895;28;20048;-70
2023/07/16 05:01:03;;;;;;;0.10;0.10;;;17.80;99.90;;;;;;5034452;28;20038;-69
2023/07/16 05:03:29;;;;;;;0.10;0.10;;;17.80;99.90;;;;;;5023626;28;20060;-68
2023/07/16 05:05:54;;;;;;;0.32;0.28;;;17.80;99.90;;;;;;5036414;28;20045;-68
2023/07/16 05:08:20;;;;;;;1.10;1.02;;;17.70;99.90;;;;;;5027982;28;20436;-69
2023/07/16 05:10:46;;;;;;;0.10;0.10;;;17.80;99.90;;;;;;5030080;28;20041;-70
2023/07/16 05:13:11;;;;;;;0.00;0.00;;;17.80;99.90;;;;;;5020264;28;20107;-70
2023/07/16 05:15:37;;;;;;;0.20;0.20;;;17.90;99.90;;;;;;5019527;28;20425;-69
2023/07/16 05:18:03;;;;;;;1.02;0.55;;;17.90;99.90;;;;;;5018248;28;20106;-66
2023/07/16 05:20:29;;;;;;;1.85;0.45;;;17.80;99.90;;;;;;5041332;28;20067;-69
2023/07/16 05:22:55;;;;;;;8.13;2.67;;;17.70;99.90;;;;;;5040160;28;20051;-70
2023/07/16 05:25:20;;;;;;;1.10;1.10;;;17.60;99.90;;;;;;5028827;28;20048;-70
2023/07/16 05:27:46;;;;;;;0.93;0.85;;;17.50;99.90;;;;;;5035287;28;20147;-70
2023/07/16 05:30:12;;;;;;;1.10;0.98;;;17.40;99.90;;;;;;5035333;28;20065;-70
2023/07/16 05:32:37;;;;;;;0.00;0.00;;;17.30;99.90;;;;;;5028498;28;20054;-69
2023/07/16 05:35:04;;;;;;;0.38;0.10;;;17.30;99.90;;;;;;5029739;28;20069;-68
2023/07/16 05:37:29;;;;;;;0.47;0.35;;;17.30;99.90;;;;;;5044458;28;20040;-69
2023/07/16 05:39:55;;;;;;;0.60;0.60;;;17.30;99.90;;;;;;5023626;28;20087;-69
2023/07/16 05:42:21;;;;;;;1.75;0.95;;;17.30;99.90;;;;;;5036254;28;20053;-70
2023/07/16 05:44:48;;;;;;;1.27;0.30;;;17.40;99.90;;;;;;5020127;28;20067;-70
2023/07/16 05:47:13;;;;;;;0.50;0.40;;;17.50;99.90;;;;;;5035478;28;20037;-70
2023/07/16 05:49:39;;;;;;;0.20;0.15;;;17.60;99.90;;;;;;5023640;28;20061;-68
2023/07/16 05:52:05;;;;;;;0.10;0.10;;;17.70;99.90;;;;;;5040145;28;20489;-69
2023/07/16 05:54:31;;;;;;;0.57;0.55;;;17.60;99.90;;;;;;5023858;28;20048;-69
2023/07/16 05:56:57;;;;;;;0.30;0.30;;;17.60;99.90;;;;;;5032062;28;20044;-69
2023/07/16 05:59:23;;;;;;;0.38;0.38;;;17.60;99.90;;;;;;5035353;28;20054;-69
2023/07/16 06:01:48;;;;;;;9.23;1.48;;;17.70;99.90;;;;;;5043431;28;20037;-69
2023/07/16 06:04:14;;;;;;;0.90;0.57;;;17.80;99.90;;;;;;5022402;28;20060;-70
2023/07/16 06:06:39;;;;;;;2.38;1.88;;;17.90;99.90;;;;;;5036712;28;20120;-69
2023/07/16 06:09:05;;;;;;;0.63;0.35;;;17.90;99.90;;;;;;5033627;28;20396;-68
2023/07/16 06:11:31;;;;;;;3.28;0.57;;;17.90;99.90;;;;;;5031142;28;20037;-70
2023/07/16 06:13:56;;;;;;;11.05;1.33;;;17.90;99.90;;;;;;5030545;28;20045;-70
2023/07/16 06:16:22;;;;;;;0.30;0.30;;;17.90;99.90;;;;;;5042094;28;20389;-70
2023/07/16 06:18:48;;;;;;;1.40;0.95;;;18.00;99.90;;;;;;5023175;28;20038;-69
2023/07/16 06:21:13;;;;;;;0.10;0.10;;;18.00;99.90;;;;;;5045597;28;20037;-69
2023/07/16 06:23:40;;;;;;;0.35;0.35;;;18.00;99.90;;;;;;5035619;28;20041;-69
2023/07/16 06:26:05;;;;;;;0.00;0.00;;;18.10;99.90;;;;;;5020959;28;20067;-68
2023/07/16 06:28:31;;;;;;;0.77;0.77;;;18.00;99.90;;;;;;5014440;28;20053;-69
2023/07/16 06:30:57;;;;;;;2.92;1.95;;;17.80;99.90;;;;;;5034764;28;20052;-69
2023/07/16 06:33:23;;;;;;;1.65;0.90;;;17.60;99.90;;;;;;5026079;28;20046;-68
2023/07/16 06:35:48;;;;;;;0.63;0.63;;;17.50;99.90;;;;;;5026403;28;20044;-67
2023/07/16 06:38:14;;;;;;;0.38;0.38;;;17.50;99.90;;;;;;5031550;28;20080;-67
2023/07/16 06:40:47;;;;;;;0.20;0.20;;;17.40;99.90;;;;;;5030322;28;20072;-68
2023/07/16 06:43:12;;;;;;;0.00;0.00;;;17.50;99.90;;;;;;5033584;28;20045;-68
2023/07/16 06:45:38;;;;;;;0.10;0.10;;;17.60;99.90;;;;;;5037413;28;20416;-69
2023/07/16 06:48:04;;;;;;;0.20;0.20;;;17.70;99.90;;;;;;5047062;28;20040;-68
2023/07/16 06:50:30;;;;;;;0.20;0.20;;;17.70;99.90;;;;;;5040098;28;20073;-68
2023/07/16 06:52:55;;;;;;;0.35;0.35;;;17.60;99.90;;;;;;5023836;28;20470;-68
2023/07/16 06:55:21;;;;;;;1.65;0.73;;;17.60;99.90;;;;;;5040154;28;20047;-69
2023/07/16 06:57:46;;;;;;;0.40;0.40;;;17.50;99.90;;;;;;5030979;28;20473;-70
2023/07/16 07:00:12;;;;;;;0.57;0.57;;;17.50;99.90;;;;;;5035626;28;20041;-70
2023/07/16 07:02:38;;;;;;;0.00;0.00;;;17.50;99.90;;;;;;5030733;28;20042;-70
2023/07/16 07:05:04;;;;;;;0.00;0.00;;;17.60;99.90;;;;;;5015351;28;20049;-68
2023/07/16 07:07:30;;;;;;;0.50;0.50;;;17.70;99.90;;;;;;5023973;28;20040;-69
2023/07/16 07:09:55;;;;;;;0.10;0.10;;;17.70;99.90;;;;;;5023789;28;20382;-70
2023/07/16 07:12:21;;;;;;;0.35;0.35;;;17.80;99.90;;;;;;5026964;28;20136;-71
2023/07/16 07:14:47;;;;;;;1.40;0.80;;;18.00;99.90;;;;;;5042822;28;20044;-70
2023/07/16 07:17:13;;;;;;;2.72;0.93;;;18.00;99.90;;;;;;5041553;28;21534;-71
2023/07/16 07:19:39;;;;;;;3.53;2.28;;;18.00;99.90;;;;;;5008515;28;20038;-69
2023/07/16 07:22:05;;;;;;;0.75;0.50;;;18.00;99.90;;;;;;5025153;28;20046;-68
2023/07/16 07:24:30;;;;;;;0.45;0.45;;;18.10;99.90;;;;;;5033884;28;20896;-68
2023/07/16 07:26:56;;;;;;;0.43;0.43;;;18.10;99.90;;;;;;5033384;28;20529;-69
2023/07/16 07:29:21;;;;;;;1.25;0.52;;;18.00;99.90;;;;;;5029859;28;20092;-68
2023/07/16 07:31:47;;;;;;;3.60;0.80;;;17.90;99.90;;;;;;5026506;28;20060;-70
2023/07/16 07:34:13;;;;;;;2.75;2.50;;;17.90;99.90;;;;;;5011953;28;20061;-69
2023/07/16 07:36:38;;;;;;;1.95;1.17;;;17.80;99.90;;;;;;5020668;28;20129;-69
2023/07/16 07:39:04;;;;;;;0.32;0.32;;;17.90;99.90;;;;;;5031254;28;20429;-68
2023/07/16 07:41:30;;;;;;;0.22;0.13;;;18.00;99.90;;;;;;5044621;28;20037;-69
2023/07/16 07:43:55;;;;;;;0.10;0.10;;;18.10;99.90;;;;;;5023134;28;20044;-68
2023/07/16 07:46:21;;;;;;;0.00;0.00;;;18.20;99.90;;;;;;5026785;28;20046;-69
2023/07/16 07:48:46;;;;;;;0.80;0.80;;;18.40;99.90;;;;;;5027923;28;20551;-69
2023/07/16 07:51:12;;;;;;;0.30;0.30;;;18.30;99.90;;;;;;5031744;28;20037;-69
2023/07/16 07:53:38;;;;;;;5.95;2.72;;;18.20;99.90;;;;;;5036511;28;20044;-69
2023/07/16 07:56:04;;;;;;;0.22;0.22;;;18.30;99.90;;;;;;5027473;28;20507;-68
2023/07/16 07:58:29;;;;;;;0.75;0.57;;;18.40;99.90;;;;;;5031663;28;20037;-69
2023/07/16 08:00:55;;;;;;;0.10;0.10;;;18.50;99.90;;;;;;5032070;28;20096;-69
2023/07/16 08:03:21;;;;;;;0.10;0.10;;;18.50;99.90;;;;;;5019356;28;20130;-69
2023/07/16 08:05:49;;;;;;;0.45;0.45;;;18.50;99.90;;;;;;5029263;28;20120;-68
2023/07/16 08:08:15;;;;;;;4.28;0.65;;;18.40;99.90;;;;;;5034567;28;20037;-71
2023/07/16 08:10:40;;;;;;;0.82;0.77;;;18.50;99.90;;;;;;5022022;28;20041;-72
2023/07/16 08:13:06;;;;;;;0.10;0.10;;;18.50;99.90;;;;;;5013313;28;20317;-69
2023/07/16 08:15:32;;;;;;;0.38;0.38;;;18.60;99.90;;;;;;5029583;28;20045;-69
2023/07/16 08:17:59;;;;;;;0.22;0.22;;;18.70;99.90;;;;;;5018886;28;20050;-65
2023/07/16 08:20:26;;;;;;;0.88;0.88;;;18.80;99.90;;;;;;5039309;28;20044;-68
2023/07/16 08:22:51;;;;;;;0.17;0.17;;;18.90;99.90;;;;;;5014703;28;20045;-68
2023/07/16 08:25:17;;;;;;;0.20;0.20;;;19.00;99.90;;;;;;5033184;28;20037;-69
2023/07/16 08:27:43;;;;;;;1.45;0.75;;;19.10;99.90;;;;;;5035615;28;20052;-69
2023/07/16 08:30:08;;;;;;;0.52;0.52;;;19.10;99.90;;;;;;5008964;28;20120;-69
2023/07/16 08:32:34;;;;;;;0.30;0.25;;;19.10;99.90;;;;;;5034093;28;20057;-65
2023/07/16 08:34:59;;;;;;;2.08;1.10;;;19.10;99.90;;;;;;5019222;28;20049;-68
2023/07/16 08:37:25;;;;;;;0.30;0.30;;;19.20;99.90;;;;;;5016527;28;20049;-70
2023/07/16 08:39:54;;;;;;;0.28;0.20;;;19.30;99.90;;;;;;5029519;28;20052;-69
2023/07/16 08:42:20;;;;;;;0.38;0.20;;;19.40;99.90;;;;;;5027855;28;20040;-70
2023/07/16 08:44:50;;;;;;;19.08;0.98;;;19.50;99.90;;;;;;5041279;28;20460;-71
2023/07/16 08:47:16;;;;;;;16.05;1.52;;;19.50;99.90;;;;;;5040094;28;20050;-70
2023/07/16 08:49:56;;;;;;;14.90;2.40;;;19.50;99.90;;;;;;5010104;28;20128;-68
2023/07/16 08:52:22;;;;;;;0.00;0.00;;;19.50;99.90;;;;;;5043943;28;20041;-71
2023/07/16 08:54:47;;;;;;;0.65;0.65;;;19.50;99.90;;;;;;5044962;28;20048;-70
2023/07/16 08:57:14;;;;;;;0.98;0.68;;;19.60;99.90;;;;;;5040126;28;20041;-70
2023/07/16 08:59:40;;;;;;;0.00;0.00;;;19.60;99.90;;;;;;5024078;28;20056;-71
2023/07/16 09:02:06;;;;;;;1.77;1.20;;;19.50;99.90;;;;;;5029648;28;20069;-69
2023/07/16 09:04:33;;;;;;;0.08;0.08;;;19.20;99.90;;;;;;5017066;28;20045;-69
2023/07/16 09:06:58;;;;;;;0.08;0.08;;;18.90;99.90;;;;;;5041770;28;20090;-69
2023/07/16 09:09:24;;;;;;;1.30;0.65;;;18.90;99.90;;;;;;5040566;28;20120;-70
2023/07/16 09:11:50;;;;;;;1.92;0.13;;;19.10;99.90;;;;;;5034392;28;20141;-70
2023/07/16 09:14:20;;;;;;;1.85;0.68;;;19.30;99.90;;;;;;5032323;28;20057;-70
2023/07/16 09:16:52;;;;;;;6.35;3.95;;;19.40;99.90;;;;;;5015390;28;20394;-69
2023/07/16 09:19:18;;;;;;;3.75;1.60;;;19.40;99.90;;;;;;5016885;28;20473;-70
2023/07/16 09:21:51;;;;;;;2.17;0.90;;;19.20;99.90;;;;;;5043918;28;20037;-69
2023/07/16 09:24:18;;;;;;;1.85;0.25;;;19.30;99.90;;;;;;5028891;28;20125;-69
2023/07/16 09:26:51;;;;;;;0.10;0.10;;;19.40;99.90;;;;;;5039323;28;20098;-70
2023/07/16 09:29:17;;;;;;;0.65;0.40;;;19.40;99.90;;;;;;5024525;28;20057;-70
2023/07/16 09:32:12;;;;;;;0.10;0.10;;;19.60;99.90;;;;;;5035262;28;20409;-69
2023/07/16 09:34:38;;;;;;;0.20;0.20;;;19.80;99.90;;;;;;5023503;28;20060;-69
2023/07/16 09:37:04;;;;;;;1.35;1.25;;;19.80;99.90;;;;;;5035966;28;20168;-70
2023/07/16 09:39:32;;;;;;;1.02;0.75;;;19.80;99.90;;;;;;5030742;28;20049;-70
2023/07/16 09:41:58;;;;;;;2.45;1.52;;;19.80;99.90;;;;;;5030293;28;20046;-72
2023/07/16 09:44:24;;;;;;;0.32;0.32;;;19.80;99.90;;;;;;5035493;28;20056;-69
2023/07/16 09:46:49;;;;;;;0.43;0.43;;;19.80;99.90;;;;;;5023745;28;20104;-70
2023/07/16 09:49:15;;;;;;;3.00;2.70;;;20.00;99.90;;;;;;5029096;28;20128;-70
2023/07/16 09:51:43;;;;;;;0.25;0.25;;;20.10;99.90;;;;;;5038801;28;20049;-68
2023/07/16 09:54:12;;;;;;;0.03;0.03;;;20.00;99.90;;;;;;5033912;28;20171;-69
2023/07/16 09:56:54;;;;;;;0.93;0.63;;;19.80;99.90;;;;;;5011593;28;20674;-70
2023/07/16 09:59:24;;;;;;;1.70;1.60;;;19.90;99.90;;;;;;5030625;28;20048;-69
2023/07/16 10:01:51;;;;;;;0.15;0.15;;;20.40;99.90;;;;;;5040723;28;20045;-69
2023/07/16 10:04:20;;;;;;;0.20;0.20;;;20.50;99.90;;;;;;5010262;28;20363;-68
2023/07/16 10:06:57;;;;;;;6.93;1.65;;;20.30;99.90;;;;;;5030688;28;20072;-70
2023/07/16 10:09:41;;;;;;;0.00;0.00;;;20.00;99.90;;;;;;5015862;28;20044;-69
2023/07/16 10:12:10;;;;;;;0.73;0.73;;;20.20;99.90;;;;;;5037414;28;20088;-70
2023/07/16 10:14:43;;;;;;;0.20;0.17;;;20.40;99.90;;;;;;5029525;28;20053;-71
2023/07/16 10:17:39;;;;;;;14.30;1.45;;;20.30;99.90;;;;;;5024004;28;20493;-67
2023/07/16 10:20:12;;;;;;;0.32;0.32;;;20.20;99.90;;;;;;5028067;28;20056;-68
2023/07/16 10:22:43;;;;;;;5.60;1.23;;;20.50;99.90;;;;;;5017664;28;20053;-69
2023/07/16 10:25:10;;;;;;;0.95;0.40;;;20.30;99.90;;;;;;5037951;28;20036;-68
2023/07/16 10:27:39;;;;;;;1.20;1.13;;;20.30;99.90;;;;;;5018982;28;20049;-68
2023/07/16 10:30:05;;;;;;;0.60;0.50;;;20.20;99.90;;;;;;5035877;28;20131;-69
2023/07/16 10:32:32;;;;;;;0.90;0.90;;;19.90;99.90;;;;;;5025967;28;20050;-69
2023/07/16 10:34:58;;;;;;;1.02;0.75;;;19.80;99.90;;;;;;5019855;28;20046;-70
2023/07/16 10:37:25;;;;;;;1.00;0.85;;;19.70;99.90;;;;;;5024906;28;20474;-70
2023/07/16 10:39:53;;;;;;;0.03;0.03;;;20.00;99.90;;;;;;5020957;28;20038;-70
2023/07/16 10:42:20;;;;;;;0.55;0.52;;;20.10;99.90;;;;;;5038610;28;20120;-68
2023/07/16 10:44:52;;;;;;;0.28;0.28;;;20.00;99.90;;;;;;5024934;28;20042;-70
2023/07/16 10:47:22;;;;;;;1.05;0.47;;;19.90;99.90;;;;;;5033636;28;20041;-69
2023/07/16 10:49:48;;;;;;;0.00;0.00;;;20.10;99.90;;;;;;5045151;28;20088;-68
2023/07/16 10:52:14;;;;;;;4.80;1.90;;;20.00;99.90;;;;;;5027203;28;20049;-66
2023/07/16 10:54:40;;;;;;;1.33;1.13;;;19.90;99.90;;;;;;5028231;28;20486;-66
2023/07/16 10:57:06;;;;;;;0.47;0.30;;;19.80;99.90;;;;;;5036889;28;20052;-68
2023/07/16 10:59:32;;;;;;;3.65;0.93;;;19.60;99.90;;;;;;5030294;28;20484;-68
2023/07/16 11:01:58;;;;;;;0.10;0.10;;;19.60;99.90;;;;;;5034875;28;20050;-68
2023/07/16 11:04:23;;;;;;;0.68;0.68;;;19.40;99.90;;;;;;5020923;28;20128;-70
2023/07/16 11:06:52;;;;;;;0.20;0.20;;;19.30;99.90;;;;;;5031057;28;20119;-69
2023/07/16 11:09:18;;;;;;;1.77;1.40;;;19.30;99.90;;;;;;5035166;28;20079;-69
2023/07/16 11:11:43;;;;;;;1.60;1.27;;;19.20;99.90;;;;;;5037887;28;20080;-68
2023/07/16 11:14:09;;;;;;;0.00;0.00;;;19.30;99.90;;;;;;5028185;28;20410;-69
2023/07/16 11:16:38;;;;;;;1.75;0.57;;;19.20;99.90;;;;;;5028637;28;20038;-69
2023/07/16 11:19:05;;;;;;;0.00;0.00;;;19.20;99.90;;;;;;5024056;28;20041;-71
2023/07/16 11:21:33;;;;;;;0.08;0.08;;;19.30;99.90;;;;;;5017493;28;20110;-68
2023/07/16 11:24:35;;;;;;;0.30;0.22;;;19.30;99.90;;;;;;5036123;28;20496;-67
2023/07/16 11:27:01;;;;;;;0.25;0.25;;;19.70;99.90;;;;;;5007399;28;20054;-68
2023/07/16 11:29:34;;;;;;;0.32;0.32;;;20.30;99.90;;;;;;5013340;28;20397;-67
2023/07/16 11:31:59;;;;;;;0.20;0.20;;;20.40;99.90;;;;;;5026036;28;20050;-67
2023/07/16 11:34:25;;;;;;;0.08;0.08;;;20.50;99.90;;;;;;5023416;28;20118;-69
2023/07/16 11:36:51;;;;;;;0.50;0.50;;;20.60;99.90;;;;;;5029986;28;20057;-69
2023/07/16 11:39:16;;;;;;;0.20;0.17;;;20.70;99.90;;;;;;5038346;28;20044;-70
2023/07/16 11:41:42;;;;;;;0.30;0.30;;;20.70;99.90;;;;;;5042235;28;20081;-69
2023/07/16 11:44:09;;;;;;;0.65;0.65;;;20.60;99.90;;;;;;5019129;28;20057;-69
2023/07/16 11:46:35;;;;;;;3.20;2.28;;;20.50;99.90;;;;;;5030727;28;20053;-68
2023/07/16 11:49:01;;;;;;;4.05;0.30;;;20.40;99.90;;;;;;5044511;28;20060;-69
2023/07/16 11:51:27;;;;;;;0.35;0.35;;;20.50;99.90;;;;;;5046034;28;20052;-70
2023/07/16 11:53:53;;;;;;;0.20;0.20;;;20.90;99.90;;;;;;5000114;28;20137;-70
2023/07/16 11:56:19;;;;;;;1.40;0.40;;;21.30;99.90;;;;;;5031339;28;20045;-69
2023/07/16 11:58:45;;;;;;;0.00;0.00;;;21.10;99.90;;;;;;5037582;28;20047;-67
2023/07/16 12:01:10;;;;;;;0.10;0.10;;;21.10;99.90;;;;;;5036317;28;20470;-68
2023/07/16 12:03:36;;;;;;;1.08;1.08;;;20.80;99.90;;;;;;5026832;28;20042;-69
2023/07/16 12:06:01;;;;;;;9.05;1.95;;;20.70;99.90;;;;;;5028396;28;20055;-70
2023/07/16 12:08:27;;;;;;;5.30;0.60;;;20.50;99.90;;;;;;5016278;28;20084;-69
2023/07/16 12:10:53;;;;;;;2.90;0.55;;;20.30;99.90;;;;;;5032253;28;20042;-70
2023/07/16 12:13:19;;;;;;;1.35;0.65;;;20.10;99.90;;;;;;5024780;28;20052;-70
2023/07/16 12:15:44;;;;;;;0.00;0.00;;;20.00;99.90;;;;;;5023467;28;20045;-70
2023/07/16 12:18:10;;;;;;;0.00;0.00;;;19.70;99.90;;;;;;5033506;28;20054;-70
2023/07/16 12:20:36;;;;;;;0.20;0.20;;;19.10;99.90;;;;;;5019268;28;20124;-69
2023/07/16 12:23:02;;;;;;;11.45;0.70;;;18.70;99.90;;;;;;5033250;28;20049;-69
2023/07/16 12:25:28;;;;;;;0.10;0.10;;;18.50;99.90;;;;;;5015486;28;20094;-70
2023/07/16 12:27:54;;;;;;;1.27;0.77;;;18.30;99.90;;;;;;5033575;28;20434;-69
2023/07/16 12:30:20;;;;;;;20.92;1.13;;;18.40;99.90;;;;;;5025642;28;20108;-69
2023/07/16 12:32:46;;;;;;;2.15;0.57;;;18.60;99.90;;;;;;5030356;28;20049;-69
2023/07/16 12:35:11;;;;;;;0.35;0.35;;;18.60;99.90;;;;;;5021109;28;20049;-69
2023/07/16 12:37:37;;;;;;;0.20;0.20;;;18.50;99.90;;;;;;5026450;28;20045;-70
2023/07/16 12:40:03;;;;;;;0.00;0.00;;;18.60;99.90;;;;;;5027143;28;20132;-69
2023/07/16 12:42:28;;;;;;;0.40;0.40;;;19.20;99.90;;;;;;5032224;28;20053;-69
2023/07/16 12:44:54;;;;;;;0.03;0.03;;;19.00;99.90;;;;;;5040953;28;20041;-69